createdAt,value
2022-09-06T00:02:31.538Z,23.88
2022-09-06T00:04:58.797Z,23.70
2022-09-06T00:07:25.987Z,23.57
2022-09-06T00:09:53.166Z,23.60
2022-09-06T00:12:20.510Z,23.60
2022-09-06T00:14:47.670Z,23.61
2022-09-06T00:17:14.907Z,23.66
2022-09-06T00:19:42.078Z,23.83
2022-09-06T00:22:09.394Z,23.87
2022-09-06T00:24:37.316Z,23.73
2022-09-06T00:27:05.110Z,23.63
2022-09-06T00:29:32.329Z,23.71
2022-09-06T00:32:00.101Z,23.79
2022-09-06T00:34:27.887Z,23.66
2022-09-06T00:36:55.147Z,23.59
2022-09-06T00:39:22.321Z,23.57
2022-09-06T00:41:49.517Z,23.60
2022-09-06T00:44:16.698Z,23.58
2022-09-06T00:46:46.730Z,23.52
2022-09-06T00:49:34.154Z,23.56
2022-09-06T00:52:03.381Z,23.50
2022-09-06T00:54:31.103Z,23.46
2022-09-06T00:56:58.612Z,23.45
2022-09-06T00:59:27.169Z,23.34
2022-09-06T01:01:54.452Z,23.27
2022-09-06T01:04:21.813Z,23.20
2022-09-06T01:06:49.315Z,23.10
2022-09-06T01:09:16.488Z,23.05
2022-09-06T01:11:46.718Z,23.01
2022-09-06T01:14:19.936Z,23.03
2022-09-06T01:17:11.295Z,22.96
2022-09-06T01:19:38.478Z,22.93
2022-09-06T01:22:38.224Z,22.89
2022-09-06T01:25:11.319Z,22.62
2022-09-06T01:27:52.772Z,22.34
2022-09-06T01:30:20.705Z,22.08
2022-09-06T01:32:56.206Z,21.99
2022-09-06T01:35:26.456Z,21.82
2022-09-06T01:37:53.928Z,21.71
2022-09-06T01:40:21.192Z,21.81
2022-09-06T01:42:49.578Z,21.95
2022-09-06T01:45:36.996Z,22.10
2022-09-06T01:48:07.292Z,22.22
2022-09-06T01:50:46.229Z,22.23
2022-09-06T01:53:25.616Z,22.14
2022-09-06T01:56:13.082Z,22.26
2022-09-06T01:58:49.492Z,22.32
2022-09-06T02:01:28.602Z,22.25
2022-09-06T02:04:00.629Z,22.14
2022-09-06T02:06:30.108Z,22.25
2022-09-06T02:09:08.174Z,22.18
2022-09-06T02:11:47.896Z,21.99
2022-09-06T02:14:18.575Z,21.91
2022-09-06T02:16:48.523Z,21.97
2022-09-06T02:19:19.853Z,22.08
2022-09-06T02:21:47.915Z,22.06
2022-09-06T02:24:23.789Z,22.00
2022-09-06T02:26:51.512Z,22.14
2022-09-06T02:29:18.948Z,22.27
2022-09-06T02:31:51.166Z,22.28
2022-09-06T02:34:19.513Z,22.31
2022-09-06T02:36:47.097Z,22.27
2022-09-06T02:39:14.395Z,22.21
2022-09-06T02:41:43.624Z,22.19
2022-09-06T02:44:10.914Z,22.23
2022-09-06T02:46:38.120Z,22.38
2022-09-06T02:49:05.339Z,22.37
2022-09-06T02:51:36.587Z,22.26
2022-09-06T02:54:05.281Z,22.27
2022-09-06T02:56:33.792Z,22.26
2022-09-06T02:59:00.990Z,22.26
2022-09-06T03:01:28.272Z,22.22
2022-09-06T03:03:56.052Z,22.18
2022-09-06T03:06:23.375Z,22.15
2022-09-06T03:08:51.449Z,22.09
2022-09-06T03:11:18.874Z,22.07
2022-09-06T03:13:46.405Z,22.09
2022-09-06T03:16:15.569Z,22.14
2022-09-06T03:18:42.829Z,22.09
2022-09-06T03:21:10.131Z,22.05
2022-09-06T03:23:39.575Z,22.06
2022-09-06T03:26:07.405Z,22.01
2022-09-06T03:28:34.777Z,21.99
2022-09-06T03:31:02.035Z,21.96
2022-09-06T03:33:29.293Z,21.91
2022-09-06T03:35:58.127Z,21.88
2022-09-06T03:38:26.233Z,21.96
2022-09-06T03:40:54.104Z,21.95
2022-09-06T03:43:23.125Z,21.90
2022-09-06T03:45:51.881Z,21.87
2022-09-06T03:48:20.060Z,21.87
2022-09-06T03:50:48.321Z,21.91
2022-09-06T03:53:16.282Z,21.95
2022-09-06T03:55:47.385Z,21.98
2022-09-06T03:58:15.860Z,22.14
2022-09-06T04:00:43.071Z,22.19
2022-09-06T04:03:10.297Z,22.19
2022-09-06T04:05:37.605Z,22.09
2022-09-06T04:08:05.920Z,22.04
2022-09-06T04:10:33.766Z,21.95
2022-09-06T04:13:01.020Z,21.79
2022-09-06T04:15:28.179Z,21.88
2022-09-06T04:17:55.438Z,21.87
2022-09-06T04:20:23.480Z,21.86
2022-09-06T04:22:50.697Z,21.71
2022-09-06T04:25:17.937Z,21.55
2022-09-06T04:27:45.212Z,21.40
2022-09-06T04:30:12.416Z,21.45
2022-09-06T04:32:39.676Z,21.52
2022-09-06T04:35:07.097Z,21.53
2022-09-06T04:37:34.321Z,21.57
2022-09-06T04:40:01.698Z,21.64
2022-09-06T04:42:28.955Z,21.68
2022-09-06T04:44:56.149Z,21.66
2022-09-06T04:47:23.610Z,21.64
2022-09-06T04:49:50.812Z,21.65
2022-09-06T04:52:18.004Z,21.62
2022-09-06T04:54:45.229Z,21.62
2022-09-06T04:57:12.492Z,21.47
2022-09-06T04:59:39.715Z,21.42
2022-09-06T05:02:07.009Z,21.48
2022-09-06T05:04:34.315Z,21.53
2022-09-06T05:07:05.469Z,21.51
2022-09-06T05:09:33.592Z,21.52
2022-09-06T05:12:01.701Z,21.59
2022-09-06T05:14:29.304Z,21.58
2022-09-06T05:16:56.583Z,21.39
2022-09-06T05:19:23.897Z,21.23
2022-09-06T05:21:51.718Z,21.29
2022-09-06T05:24:19.266Z,21.36
2022-09-06T05:26:46.500Z,21.40
2022-09-06T05:29:13.708Z,21.48
2022-09-06T05:31:40.949Z,21.44
2022-09-06T05:34:08.247Z,21.51
2022-09-06T05:36:35.522Z,21.56
2022-09-06T05:39:02.855Z,21.64
2022-09-06T05:41:30.067Z,21.68
2022-09-06T05:43:57.292Z,21.65
2022-09-06T05:46:24.516Z,21.64
2022-09-06T05:48:55.615Z,21.78
2022-09-06T05:51:22.830Z,21.82
2022-09-06T05:53:50.036Z,21.86
2022-09-06T05:56:17.293Z,21.93
2022-09-06T05:58:44.638Z,21.97
2022-09-06T06:01:14.669Z,21.98
2022-09-06T06:03:41.969Z,22.10
2022-09-06T06:06:09.646Z,22.14
2022-09-06T06:08:36.915Z,22.19
2022-09-06T06:11:04.237Z,22.24
2022-09-06T06:13:34.960Z,22.30
2022-09-06T06:16:03.322Z,22.36
2022-09-06T06:18:30.587Z,22.49
2022-09-06T06:21:13.091Z,22.61
2022-09-06T06:23:41.080Z,22.49
2022-09-06T06:26:08.717Z,22.56
2022-09-06T06:28:36.375Z,22.67
2022-09-06T06:31:04.516Z,22.78
2022-09-06T06:33:32.516Z,22.88
2022-09-06T06:36:00.906Z,22.97
2022-09-06T06:38:32.376Z,23.10
2022-09-06T06:41:04.394Z,23.14
2022-09-06T06:43:37.633Z,23.19
2022-09-06T06:46:05.011Z,23.17
2022-09-06T06:48:32.489Z,23.10
2022-09-06T06:50:59.793Z,23.13
2022-09-06T06:53:26.979Z,23.19
2022-09-06T06:55:54.608Z,23.20
2022-09-06T06:58:21.979Z,23.35
2022-09-06T07:00:49.422Z,23.52
2022-09-06T07:03:17.036Z,23.75
2022-09-06T07:08:32.734Z,24.07
2022-09-06T07:10:59.962Z,24.09
2022-09-06T07:13:27.269Z,24.16
2022-09-06T07:16:04.971Z,24.23
2022-09-06T07:18:32.189Z,24.27
2022-09-06T07:26:34.645Z,24.36
2022-09-06T07:29:03.237Z,24.34
2022-09-06T07:34:20.613Z,24.22
2022-09-06T07:36:48.489Z,24.28
2022-09-06T07:39:15.751Z,24.23
2022-09-06T07:41:43.115Z,24.33
2022-09-06T07:44:10.443Z,24.44
2022-09-06T07:46:37.768Z,24.58
2022-09-06T07:49:05.864Z,24.77
2022-09-06T07:51:33.067Z,24.84
2022-09-06T07:54:28.895Z,24.86
2022-09-06T07:56:47.802Z,24.95
2022-09-06T07:59:15.407Z,24.89
2022-09-06T08:01:42.861Z,24.96
2022-09-06T08:04:14.209Z,25.07
2022-09-06T08:09:30.215Z,25.23
2022-09-06T08:11:57.433Z,25.24
2022-09-06T08:14:24.605Z,25.18
2022-09-06T08:16:51.853Z,25.28
2022-09-06T08:19:19.015Z,25.45
2022-09-06T08:21:46.261Z,25.58
2022-09-06T08:24:13.448Z,25.74
2022-09-06T08:26:42.458Z,25.78
2022-09-06T08:29:10.899Z,26.02
2022-09-06T08:31:39.187Z,26.25
2022-09-06T08:34:06.536Z,26.45
2022-09-06T08:36:34.503Z,26.59
2022-09-06T08:39:03.065Z,26.61
2022-09-06T08:41:37.879Z,26.56
2022-09-06T08:46:59.584Z,26.58
2022-09-06T08:49:29.416Z,26.43
2022-09-06T08:52:15.432Z,26.48
2022-09-06T08:54:42.618Z,26.81
2022-09-06T08:57:15.748Z,26.97
2022-09-06T08:59:44.054Z,27.21
2022-09-06T09:02:11.316Z,27.85
2022-09-06T09:04:47.325Z,28.99
2022-09-06T09:07:20.512Z,29.20
2022-09-06T09:09:47.779Z,30.19
2022-09-06T09:12:17.706Z,30.78
2022-09-06T09:14:48.365Z,31.03
2022-09-06T09:17:22.258Z,32.75
2022-09-06T09:19:49.829Z,32.50
2022-09-06T09:22:18.219Z,31.08
2022-09-06T09:24:47.411Z,30.29
2022-09-06T09:27:17.561Z,29.98
2022-09-06T09:32:45.170Z,28.70
2022-09-06T09:35:21.573Z,28.18
2022-09-06T09:37:57.441Z,28.18
2022-09-06T09:40:33.459Z,27.81
2022-09-06T09:43:15.720Z,27.91
2022-09-06T09:45:43.593Z,28.16
2022-09-06T09:48:16.756Z,28.15
2022-09-06T09:50:43.952Z,28.18
2022-09-06T09:53:12.433Z,28.27
2022-09-06T09:55:40.185Z,28.30
2022-09-06T09:58:08.893Z,28.05
2022-09-06T10:00:39.946Z,27.98
2022-09-06T10:03:13.163Z,27.83
2022-09-06T10:05:41.351Z,27.95
2022-09-06T10:08:11.129Z,28.11
2022-09-06T10:10:43.149Z,28.06
2022-09-06T10:13:29.850Z,28.04
2022-09-06T10:15:58.889Z,28.05
2022-09-06T10:18:29.994Z,28.09
2022-09-06T10:21:02.991Z,27.92
2022-09-06T10:26:28.883Z,27.90
2022-09-06T10:29:02.338Z,27.95
2022-09-06T10:31:29.491Z,28.00
2022-09-06T10:34:02.812Z,27.88
2022-09-06T10:36:34.514Z,27.88
2022-09-06T10:39:18.182Z,28.04
2022-09-06T10:41:54.604Z,28.11
2022-09-06T10:44:21.757Z,27.78
2022-09-06T10:46:51.444Z,27.70
2022-09-06T10:49:19.312Z,27.87
2022-09-06T10:51:52.132Z,28.00
2022-09-06T10:54:23.461Z,27.95
2022-09-06T10:56:59.277Z,28.07
2022-09-06T10:59:37.397Z,28.20
2022-09-06T11:02:05.774Z,28.27
2022-09-06T11:07:29.143Z,28.40
2022-09-06T11:10:19.340Z,28.32
2022-09-06T11:12:49.533Z,28.38
2022-09-06T11:15:18.047Z,28.30
2022-09-06T11:17:52.316Z,28.34
2022-09-06T11:20:48.565Z,28.40
2022-09-06T11:23:18.812Z,28.42
2022-09-06T11:25:51.777Z,28.41
2022-09-06T11:28:30.147Z,28.44
2022-09-06T11:30:58.030Z,28.50
2022-09-06T11:33:30.448Z,28.52
2022-09-06T11:36:16.071Z,28.61
2022-09-06T11:38:43.323Z,28.66
2022-09-06T11:41:17.706Z,28.56
2022-09-06T11:43:51.890Z,28.61
2022-09-06T11:46:34.578Z,28.67
2022-09-06T11:49:06.261Z,28.70
2022-09-06T11:51:43.592Z,28.73
2022-09-06T11:54:16.904Z,28.80
2022-09-06T11:56:46.859Z,28.78
2022-09-06T11:59:16.898Z,28.83
2022-09-06T12:01:56.017Z,28.89
2022-09-06T12:04:23.749Z,28.94
2022-09-06T12:07:10.974Z,28.89
2022-09-06T12:09:42.622Z,28.68
2022-09-06T12:12:16.186Z,28.75
2022-09-06T12:14:46.869Z,28.77
2022-09-06T12:17:14.172Z,28.78
2022-09-06T12:19:53.560Z,28.82
2022-09-06T12:22:26.627Z,28.78
2022-09-06T12:24:56.064Z,28.80
2022-09-06T12:27:25.007Z,28.81
2022-09-06T12:30:04.373Z,28.79
2022-09-06T12:32:36.969Z,28.81
2022-09-06T12:37:57.468Z,28.84
2022-09-06T12:40:25.684Z,28.91
2022-09-06T12:42:53.495Z,28.88
2022-09-06T12:45:26.552Z,28.90
2022-09-06T12:48:11.671Z,28.98
2022-09-06T12:50:39.332Z,29.02
2022-09-06T12:53:26.652Z,29.04
2022-09-06T12:56:07.528Z,29.04
2022-09-06T12:58:35.656Z,29.06
2022-09-06T13:01:12.777Z,29.10
2022-09-06T13:04:06.346Z,29.12
2022-09-06T13:06:37.384Z,29.10
2022-09-06T13:09:05.253Z,29.09
2022-09-06T13:11:34.507Z,29.02
2022-09-06T13:14:02.562Z,28.93
2022-09-06T13:16:58.263Z,28.93
2022-09-06T13:19:30.395Z,29.00
2022-09-06T13:21:58.518Z,29.04
2022-09-06T13:24:25.677Z,29.08
2022-09-06T13:26:53.311Z,29.07
2022-09-06T13:29:25.140Z,29.06
2022-09-06T13:31:54.544Z,29.13
2022-09-06T13:34:23.485Z,29.13
2022-09-06T13:36:55.288Z,29.20
2022-09-06T13:39:37.407Z,29.22
2022-09-06T13:42:23.484Z,29.17
2022-09-06T13:44:53.557Z,29.16
2022-09-06T13:47:20.775Z,29.16
2022-09-06T13:49:48.348Z,29.13
2022-09-06T13:52:15.605Z,29.07
2022-09-06T13:54:42.861Z,29.04
2022-09-06T13:57:10.090Z,29.10
2022-09-06T13:59:37.253Z,29.14
2022-09-06T14:02:09.346Z,29.17
2022-09-06T14:04:36.999Z,29.20
2022-09-06T14:07:05.105Z,29.28
2022-09-06T14:09:32.674Z,29.24
2022-09-06T14:12:00.730Z,29.22
2022-09-06T14:14:27.961Z,29.21
2022-09-06T14:16:55.435Z,29.16
2022-09-06T14:19:23.254Z,29.10
2022-09-06T14:21:50.483Z,29.09
2022-09-06T14:24:17.802Z,29.08
2022-09-06T14:26:45.018Z,29.11
2022-09-06T14:29:12.283Z,29.17
2022-09-06T14:31:39.776Z,29.17
2022-09-06T14:34:07.104Z,29.17
2022-09-06T14:36:34.657Z,29.16
2022-09-06T14:39:02.121Z,29.15
2022-09-06T14:41:29.334Z,29.14
2022-09-06T14:43:57.750Z,29.16
2022-09-06T14:46:26.747Z,29.14
2022-09-06T14:48:58.349Z,29.14
2022-09-06T14:51:26.204Z,29.11
2022-09-06T14:53:54.739Z,29.14
2022-09-06T14:56:22.974Z,29.26
2022-09-06T14:58:50.451Z,29.27
2022-09-06T15:01:19.525Z,29.24
2022-09-06T15:03:48.616Z,29.21
2022-09-06T15:06:16.368Z,29.20
2022-09-06T15:08:43.728Z,29.19
2022-09-06T15:11:12.235Z,29.18
2022-09-06T15:13:42.796Z,29.17
2022-09-06T15:16:10.773Z,29.15
2022-09-06T15:18:38.069Z,29.20
2022-09-06T15:21:11.937Z,29.22
2022-09-06T15:23:39.906Z,29.18
2022-09-06T15:26:08.344Z,29.16
2022-09-06T15:28:36.956Z,29.16
2022-09-06T15:31:04.762Z,29.19
2022-09-06T15:33:32.426Z,29.16
2022-09-06T15:36:06.224Z,29.12
2022-09-06T15:38:34.140Z,29.11
2022-09-06T15:41:07.966Z,29.10
2022-09-06T15:43:36.605Z,29.10
2022-09-06T15:46:04.610Z,29.07
2022-09-06T15:48:39.739Z,29.08
2022-09-06T15:51:07.022Z,29.07
2022-09-06T15:53:34.265Z,29.03
2022-09-06T15:56:02.652Z,29.00
2022-09-06T15:58:30.353Z,28.97
2022-09-06T16:01:01.453Z,28.99
2022-09-06T16:03:49.241Z,28.99
2022-09-06T16:08:55.429Z,28.96
2022-09-06T16:11:22.597Z,28.94
2022-09-06T16:13:49.844Z,28.94
2022-09-06T16:16:17.562Z,28.93
2022-09-06T16:18:47.283Z,28.93
2022-09-06T16:21:16.676Z,28.92
2022-09-06T16:23:49.753Z,28.88
2022-09-06T16:26:21.121Z,28.85
2022-09-06T16:28:50.212Z,28.83
2022-09-06T16:31:17.994Z,28.80
2022-09-06T16:33:45.864Z,28.79
2022-09-06T16:36:15.039Z,28.76
2022-09-06T16:38:42.397Z,28.75
2022-09-06T16:41:14.628Z,28.73
2022-09-06T16:43:42.096Z,28.70
2022-09-06T16:46:09.546Z,28.69
2022-09-06T16:48:37.040Z,28.67
2022-09-06T16:51:11.542Z,28.65
2022-09-06T16:53:39.378Z,28.60
2022-09-06T16:56:06.711Z,28.56
2022-09-06T16:58:34.044Z,28.52
2022-09-06T17:01:01.376Z,28.51
2022-09-06T17:03:28.953Z,28.46
2022-09-06T17:05:56.229Z,28.44
2022-09-06T17:08:23.505Z,28.40
2022-09-06T17:10:50.798Z,28.37
2022-09-06T17:13:17.982Z,28.34
2022-09-06T17:16:11.089Z,28.29
2022-09-06T17:18:38.582Z,28.27
2022-09-06T17:21:06.081Z,28.23
2022-09-06T17:23:33.437Z,28.20
2022-09-06T17:26:00.909Z,28.16
2022-09-06T17:28:28.734Z,28.13
2022-09-06T17:31:00.188Z,28.10
2022-09-06T17:33:27.483Z,28.11
2022-09-06T17:35:54.656Z,28.06
2022-09-06T17:38:21.807Z,28.01
2022-09-06T17:40:57.005Z,27.96
2022-09-06T17:43:24.200Z,27.91
2022-09-06T17:45:51.400Z,27.88
2022-09-06T17:48:18.706Z,27.84
2022-09-06T17:50:45.897Z,27.82
2022-09-06T17:53:13.086Z,27.80
2022-09-06T17:55:41.387Z,27.78
2022-09-06T17:58:08.761Z,27.75
2022-09-06T18:00:40.289Z,27.73
2022-09-06T18:03:08.284Z,27.73
2022-09-06T18:05:42.896Z,27.72
2022-09-06T18:08:10.193Z,27.69
2022-09-06T18:10:37.988Z,27.69
2022-09-06T18:13:06.167Z,27.66
2022-09-06T18:15:38.427Z,27.63
2022-09-06T18:18:05.657Z,27.59
2022-09-06T18:20:32.914Z,27.57
2022-09-06T18:23:00.358Z,27.54
2022-09-06T18:25:28.575Z,27.51
2022-09-06T18:27:55.808Z,27.52
2022-09-06T18:30:23.037Z,27.51
2022-09-06T18:32:50.878Z,27.50
2022-09-06T18:35:19.841Z,27.45
2022-09-06T18:37:47.164Z,27.39
2022-09-06T18:40:14.543Z,27.31
2022-09-06T18:42:44.921Z,27.33
2022-09-06T18:45:13.528Z,27.27
2022-09-06T18:47:42.770Z,27.22
2022-09-06T18:50:10.110Z,27.22
2022-09-06T18:52:38.463Z,27.26
2022-09-06T18:55:06.206Z,27.32
2022-09-06T18:57:33.508Z,27.31
2022-09-06T19:00:01.031Z,27.29
2022-09-06T19:02:28.778Z,27.27
2022-09-06T19:04:59.158Z,27.25
2022-09-06T19:07:28.585Z,27.17
2022-09-06T19:09:57.779Z,27.18
2022-09-06T19:12:25.109Z,27.22
2022-09-06T19:14:52.570Z,27.20
2022-09-06T19:17:19.937Z,27.14
2022-09-06T19:19:47.230Z,27.05
2022-09-06T19:22:14.667Z,26.97
2022-09-06T19:24:44.381Z,27.02
2022-09-06T19:27:12.185Z,26.99
2022-09-06T19:29:39.501Z,27.00
2022-09-06T19:32:06.921Z,27.02
2022-09-06T19:34:34.280Z,26.97
2022-09-06T19:37:01.585Z,26.85
2022-09-06T19:39:34.787Z,26.76
2022-09-06T19:42:04.496Z,26.63
2022-09-06T19:44:32.611Z,26.56
2022-09-06T19:47:00.258Z,26.35
2022-09-06T19:49:27.735Z,26.33
2022-09-06T19:51:54.986Z,26.31
2022-09-06T19:54:22.228Z,26.29
2022-09-06T19:56:49.507Z,26.26
2022-09-06T19:59:17.747Z,26.19
2022-09-06T20:01:46.167Z,26.20
2022-09-06T20:04:14.822Z,26.19
2022-09-06T20:06:42.117Z,26.21
2022-09-06T20:09:09.968Z,26.13
2022-09-06T20:11:38.156Z,26.13
2022-09-06T20:14:05.951Z,26.17
2022-09-06T20:16:36.029Z,26.09
2022-09-06T20:19:05.782Z,26.00
2022-09-06T20:21:33.116Z,25.90
2022-09-06T20:24:00.455Z,25.90
2022-09-06T20:26:28.862Z,25.78
2022-09-06T20:29:00.068Z,25.83
2022-09-06T20:31:28.958Z,25.85
2022-09-06T20:33:58.237Z,25.87
2022-09-06T20:36:25.912Z,25.84
2022-09-06T20:38:53.326Z,25.71
2022-09-06T20:41:21.469Z,25.69
2022-09-06T20:43:53.071Z,25.71
2022-09-06T20:46:21.639Z,25.68
2022-09-06T20:48:49.189Z,25.78
2022-09-06T20:51:19.242Z,25.67
2022-09-06T20:53:48.110Z,25.61
2022-09-06T20:56:16.710Z,25.68
2022-09-06T20:58:47.943Z,25.63
2022-09-06T21:01:16.646Z,25.63
2022-09-06T21:03:44.022Z,25.55
2022-09-06T21:06:12.333Z,25.55
2022-09-06T21:08:42.825Z,25.39
2022-09-06T21:11:10.636Z,25.49
2022-09-06T21:13:38.072Z,25.56
2022-09-06T21:16:06.201Z,25.55
2022-09-06T21:18:34.460Z,25.49
2022-09-06T21:21:06.281Z,25.42
2022-09-06T21:23:38.265Z,25.36
2022-09-06T21:26:10.106Z,25.48
2022-09-06T21:28:38.592Z,25.54
2022-09-06T21:31:08.155Z,25.61
2022-09-06T21:33:36.441Z,25.67
2022-09-06T21:36:07.001Z,25.77
2022-09-06T21:38:35.365Z,25.73
2022-09-06T21:41:03.511Z,25.69
2022-09-06T21:43:31.089Z,25.51
2022-09-06T21:46:02.054Z,25.46
2022-09-06T21:48:29.460Z,25.51
2022-09-06T21:50:57.400Z,25.49
2022-09-06T21:53:26.621Z,25.46
2022-09-06T21:55:59.421Z,25.46
2022-09-06T21:58:26.721Z,25.50
2022-09-06T22:00:55.510Z,25.50
2022-09-06T22:03:23.000Z,25.52
2022-09-06T22:05:50.370Z,25.55
2022-09-06T22:08:17.729Z,25.57
2022-09-06T22:10:45.072Z,25.54
2022-09-06T22:13:12.332Z,25.52
2022-09-06T22:15:39.775Z,25.53
2022-09-06T22:18:07.423Z,25.47
2022-09-06T22:20:34.711Z,25.46
2022-09-06T22:23:03.212Z,25.52
2022-09-06T22:25:31.232Z,25.55
2022-09-06T22:27:58.661Z,25.51
2022-09-06T22:30:26.477Z,25.61
2022-09-06T22:32:53.876Z,25.58
2022-09-06T22:35:21.245Z,25.62
2022-09-06T22:37:48.501Z,25.59
2022-09-06T22:40:15.824Z,25.38
2022-09-06T22:42:43.435Z,25.17
2022-09-06T22:45:10.810Z,25.03
2022-09-06T22:47:38.099Z,24.98
2022-09-06T22:50:06.832Z,24.99
2022-09-06T22:52:34.101Z,25.13
2022-09-06T22:55:01.481Z,25.14
2022-09-06T22:57:28.724Z,25.23
2022-09-06T22:59:56.043Z,25.21
2022-09-06T23:02:23.298Z,25.11
2022-09-06T23:04:51.412Z,25.12
2022-09-06T23:07:18.721Z,25.10
2022-09-06T23:09:46.016Z,25.06
2022-09-06T23:12:13.320Z,25.06
2022-09-06T23:14:40.598Z,24.99
2022-09-06T23:17:07.877Z,25.04
2022-09-06T23:19:35.102Z,25.11
2022-09-06T23:22:02.652Z,25.08
2022-09-06T23:24:29.876Z,24.91
2022-09-06T23:26:57.109Z,24.84
2022-09-06T23:29:24.515Z,24.78
2022-09-06T23:31:51.947Z,24.78
2022-09-06T23:34:19.181Z,24.66
2022-09-06T23:36:46.435Z,24.70
2022-09-06T23:39:13.658Z,24.65
2022-09-06T23:41:40.903Z,24.58
2022-09-06T23:44:08.110Z,24.52
2022-09-06T23:46:35.468Z,24.51
2022-09-06T23:49:02.819Z,24.50
2022-09-06T23:51:30.072Z,24.47
2022-09-06T23:53:58.332Z,24.39
2022-09-06T23:56:25.594Z,24.43
2022-09-06T23:58:52.829Z,24.51
